Time,TemperatureF,DewpointF,PressureIn,WindDirection,WindDirectionDegrees,WindSpeedMPH,WindSpeedGustMPH,Humidity,HourlyPrecipIn,Conditions,Clouds,dailyrainin,SoftwareType,DateUTC
2013-07-22 00:04:00,53.9,50.1,29.85,SSW,203,0.6,3.1,87,0.00,,,0.00,WUHU216HW,2013-07-22 07:04:00,
2013-07-22 00:09:00,53.9,50.1,29.85,SSW,203,0.0,5.5,87,0.00,,,0.00,WUHU216HW,2013-07-22 07:09:00,
2013-07-22 00:14:00,53.9,50.1,29.85,SE,135,2.6,6.2,87,0.00,,,0.00,WUHU216HW,2013-07-22 07:14:00,
2013-07-22 00:19:00,54.1,50.3,29.84,SE,135,0.6,6.2,87,0.00,,,0.00,WUHU216HW,2013-07-22 07:19:00,
2013-07-22 00:24:00,54.1,50.3,29.84,SSE,158,3.1,3.3,87,0.00,,,0.00,WUHU216HW,2013-07-22 07:24:00,
2013-07-22 00:30:00,54.1,50.3,29.84,SSW,203,0.0,6.9,87,0.00,,,0.00,WUHU216HW,2013-07-22 07:30:00,
2013-07-22 00:35:00,54.1,50.3,29.85,SSW,203,4.2,6.9,87,0.00,,,0.00,WUHU216HW,2013-07-22 07:35:00,
2013-07-22 00:40:00,54.1,50.6,29.85,SW,225,5.1,5.1,88,0.00,,,0.00,WUHU216HW,2013-07-22 07:40:00,
2013-07-22 00:45:00,54.1,50.6,29.84,WNW,293,0.0,11.1,88,0.00,,,0.00,WUHU216HW,2013-07-22 07:45:00,
2013-07-22 00:50:00,54.1,50.6,29.84,SSW,203,3.5,11.1,88,0.00,,,0.00,WUHU216HW,2013-07-22 07:50:00,
2013-07-22 00:55:00,54.1,50.6,29.84,ESE,113,0.0,3.5,88,0.00,,,0.00,WUHU216HW,2013-07-22 07:55:00,
2013-07-22 01:00:00,54.1,50.6,29.84,SSW,203,0.0,4.2,88,0.00,,,0.00,WUHU216HW,2013-07-22 08:00:00,
2013-07-22 01:05:00,54.1,50.6,29.84,SW,225,6.9,6.9,88,0.00,,,0.00,WUHU216HW,2013-07-22 08:05:00,
2013-07-22 01:10:00,54.1,50.6,29.84,South,180,0.0,6.9,88,0.00,,,0.00,WUHU216HW,2013-07-22 08:10:00,
2013-07-22 01:15:00,54.1,50.6,29.84,WSW,248,5.3,5.3,88,0.00,,,0.00,WUHU216HW,2013-07-22 08:15:00,
2013-07-22 01:20:00,54.1,50.6,29.84,SE,135,0.0,5.3,88,0.00,,,0.00,WUHU216HW,2013-07-22 08:20:00,
2013-07-22 01:26:00,54.1,50.6,29.84,SW,225,1.1,5.3,88,0.00,,,0.00,WUHU216HW,2013-07-22 08:26:00,
2013-07-22 01:31:00,54.3,50.8,29.84,SW,225,7.3,7.3,88,0.00,,,0.00,WUHU216HW,2013-07-22 08:31:00,
2013-07-22 01:36:00,54.1,50.8,29.84,SW,225,3.8,7.3,88,0.00,,,0.00,WUHU216HW,2013-07-22 08:36:00,
2013-07-22 01:41:00,54.1,50.6,29.85,WSW,248,0.0,4.2,88,0.00,,,0.00,WUHU216HW,2013-07-22 08:41:00,
2013-07-22 01:46:00,54.1,50.6,29.85,SSW,203,10.2,10.2,88,0.00,,,0.00,WUHU216HW,2013-07-22 08:46:00,
2013-07-22 01:51:00,54.1,50.6,29.85,SSW,203,0.0,10.2,88,0.00,,,0.00,WUHU216HW,2013-07-22 08:51:00,
2013-07-22 01:56:00,54.1,50.6,29.85,SW,225,5.8,6.2,88,0.00,,,0.00,WUHU216HW,2013-07-22 08:56:00,
2013-07-22 02:01:00,54.1,50.6,29.84,SW,225,0.0,5.8,88,0.00,,,0.00,WUHU216HW,2013-07-22 09:01:00,
2013-07-22 02:06:00,54.1,50.6,29.85,SW,225,2.4,8.7,88,0.00,,,0.00,WUHU216HW,2013-07-22 09:06:00,
2013-07-22 02:12:00,54.1,50.6,29.85,WSW,248,0.0,8.7,88,0.00,,,0.00,WUHU216HW,2013-07-22 09:12:00,
2013-07-22 02:17:00,53.9,50.4,29.84,South,180,0.8,5.8,88,0.00,,,0.00,WUHU216HW,2013-07-22 09:17:00,
2013-07-22 02:22:00,54.1,50.9,29.84,North,0,0.0,5.8,89,0.00,,,0.00,WUHU216HW,2013-07-22 09:22:00,
2013-07-22 02:27:00,54.1,50.9,29.84,SW,225,1.3,7.1,89,0.00,,,0.00,WUHU216HW,2013-07-22 09:27:00,
2013-07-22 02:32:00,54.1,50.9,29.85,SW,225,4.6,7.1,89,0.00,,,0.00,WUHU216HW,2013-07-22 09:32:00,
2013-07-22 02:37:00,54.1,50.9,29.84,SW,225,0.0,4.6,89,0.00,,,0.00,WUHU216HW,2013-07-22 09:37:00,
2013-07-22 02:42:00,54.3,51.1,29.85,West,270,0.0,4.6,89,0.00,,,0.00,WUHU216HW,2013-07-22 09:42:00,
2013-07-22 02:47:00,54.3,51.1,29.84,SSW,203,5.5,5.5,89,0.00,,,0.00,WUHU216HW,2013-07-22 09:47:00,
2013-07-22 02:52:00,54.3,51.1,29.84,South,180,0.0,5.5,89,0.00,,,0.00,WUHU216HW,2013-07-22 09:52:00,
2013-07-22 02:57:00,54.3,51.1,29.84,SW,225,3.1,5.5,89,0.00,,,0.00,WUHU216HW,2013-07-22 09:57:00,
2013-07-22 03:02:00,54.3,51.1,29.84,SSW,203,0.0,5.1,89,0.00,,,0.00,WUHU216HW,2013-07-22 10:02:00,
2013-07-22 03:07:00,54.3,51.1,29.83,SSW,203,0.0,5.1,89,0.00,,,0.00,WUHU216HW,2013-07-22 10:07:00,
2013-07-22 03:12:00,54.3,51.1,29.84,SSW,203,0.0,4.6,89,0.00,,,0.00,WUHU216HW,2013-07-22 10:12:00,
2013-07-22 03:17:00,54.5,51.2,29.84,WSW,248,5.3,6.9,89,0.00,,,0.00,WUHU216HW,2013-07-22 10:17:00,
2013-07-22 03:22:00,54.3,51.1,29.83,SSW,203,0.0,6.9,89,0.00,,,0.00,WUHU216HW,2013-07-22 10:22:00,
2013-07-22 03:28:00,54.5,51.2,29.83,SSW,203,7.3,7.3,89,0.00,,,0.00,WUHU216HW,2013-07-22 10:28:00,
2013-07-22 03:33:00,54.5,51.2,29.83,SW,225,3.5,7.3,89,0.00,,,0.00,WUHU216HW,2013-07-22 10:33:00,
2013-07-22 03:38:00,54.5,51.6,29.83,SSW,203,0.0,6.4,90,0.00,,,0.00,WUHU216HW,2013-07-22 10:38:00,
2013-07-22 03:43:00,54.6,51.4,29.83,SW,225,5.1,6.4,89,0.00,,,0.00,WUHU216HW,2013-07-22 10:43:00,
2013-07-22 03:48:00,54.6,51.4,29.84,SSW,203,0.0,5.1,89,0.00,,,0.00,WUHU216HW,2013-07-22 10:48:00,
2013-07-22 03:53:00,54.8,51.6,29.84,SW,225,2.0,2.0,89,0.00,,,0.00,WUHU216HW,2013-07-22 10:53:00,
2013-07-22 03:58:00,54.8,51.9,29.84,SW,225,5.3,5.3,90,0.00,,,0.00,WUHU216HW,2013-07-22 10:58:00,
2013-07-22 04:03:00,55.0,51.8,29.84,SW,225,0.0,6.4,89,0.00,,,0.00,WUHU216HW,2013-07-22 11:03:00,
2013-07-22 04:09:00,54.8,51.9,29.84,SW,225,0.0,6.4,90,0.00,,,0.00,WUHU216HW,2013-07-22 11:09:00,
2013-07-22 04:14:00,55.0,52.1,29.84,SSW,203,6.4,6.4,90,0.00,,,0.00,WUHU216HW,2013-07-22 11:14:00,
2013-07-22 04:19:00,55.0,52.1,29.84,WSW,248,0.0,6.4,90,0.00,,,0.00,WUHU216HW,2013-07-22 11:19:00,
2013-07-22 04:24:00,55.0,52.1,29.84,SSW,203,0.0,5.8,90,0.00,,,0.00,WUHU216HW,2013-07-22 11:24:00,
2013-07-22 04:29:00,54.8,51.9,29.84,SSW,203,1.3,5.8,90,0.00,,,0.00,WUHU216HW,2013-07-22 11:29:00,
2013-07-22 04:34:00,55.0,52.1,29.85,SW,225,6.4,6.4,90,0.00,,,0.00,WUHU216HW,2013-07-22 11:34:00,
2013-07-22 04:39:00,55.0,52.1,29.84,South,180,0.0,6.4,90,0.00,,,0.00,WUHU216HW,2013-07-22 11:39:00,
2013-07-22 04:44:00,55.0,52.1,29.84,SSW,203,0.4,6.4,90,0.00,,,0.00,WUHU216HW,2013-07-22 11:44:00,
2013-07-22 04:49:00,55.0,52.1,29.84,SW,225,3.8,3.8,90,0.00,,,0.00,WUHU216HW,2013-07-22 11:49:00,
2013-07-22 04:54:00,55.0,51.8,29.85,SW,225,0.0,3.8,89,0.00,,,0.00,WUHU216HW,2013-07-22 11:54:00,
2013-07-22 04:59:00,55.0,51.8,29.84,SW,225,3.1,3.8,89,0.00,,,0.00,WUHU216HW,2013-07-22 11:59:00,
2013-07-22 05:04:00,55.2,52.0,29.85,WSW,248,0.0,3.1,89,0.00,,,0.00,WUHU216HW,2013-07-22 12:04:00,
2013-07-22 05:09:00,55.2,52.0,29.85,SSW,203,0.0,2.0,89,0.00,,,0.00,WUHU216HW,2013-07-22 12:09:00,
2013-07-22 05:14:00,55.2,52.0,29.85,SSW,203,0.0,2.0,89,0.00,,,0.00,WUHU216HW,2013-07-22 12:14:00,
2013-07-22 05:19:00,55.2,52.0,29.85,SW,225,0.0,1.1,89,0.00,,,0.00,WUHU216HW,2013-07-22 12:19:00,
2013-07-22 05:24:00,55.2,52.0,29.85,SSW,203,0.0,3.3,89,0.00,,,0.00,WUHU216HW,2013-07-22 12:24:00,
2013-07-22 05:29:00,55.2,52.0,29.85,South,180,0.0,3.3,89,0.00,,,0.00,WUHU216HW,2013-07-22 12:29:00,
2013-07-22 05:35:00,55.2,52.0,29.85,WSW,248,0.0,2.4,89,0.00,,,0.00,WUHU216HW,2013-07-22 12:35:00,
2013-07-22 05:40:00,55.2,52.0,29.85,SW,225,5.8,5.8,89,0.00,,,0.00,WUHU216HW,2013-07-22 12:40:00,
2013-07-22 05:45:00,55.2,52.0,29.85,South,180,0.0,5.8,89,0.00,,,0.00,WUHU216HW,2013-07-22 12:45:00,
2013-07-22 05:50:00,55.2,52.0,29.85,South,180,0.0,3.3,89,0.00,,,0.00,WUHU216HW,2013-07-22 12:50:00,
2013-07-22 05:55:00,55.2,52.0,29.86,South,180,0.0,0.8,89,0.00,,,0.00,WUHU216HW,2013-07-22 12:55:00,
2013-07-22 06:00:00,55.2,52.0,29.86,WSW,248,0.0,0.8,89,0.00,,,0.00,WUHU216HW,2013-07-22 13:00:00,
2013-07-22 06:05:00,55.2,52.0,29.86,SW,225,0.0,0.0,89,0.00,,,0.00,WUHU216HW,2013-07-22 13:05:00,
2013-07-22 06:10:00,55.2,52.0,29.86,SW,225,0.0,2.6,89,0.00,,,0.00,WUHU216HW,2013-07-22 13:10:00,
2013-07-22 06:15:00,55.2,52.0,29.87,SW,225,0.0,2.6,89,0.00,,,0.00,WUHU216HW,2013-07-22 13:15:00,
2013-07-22 06:20:00,55.2,52.0,29.87,SW,225,0.8,0.8,89,0.00,,,0.00,WUHU216HW,2013-07-22 13:20:00,
2013-07-22 06:25:00,55.2,52.0,29.87,SSW,203,0.0,1.1,89,0.00,,,0.00,WUHU216HW,2013-07-22 13:25:00,
2013-07-22 06:31:00,55.5,52.3,29.87,SW,225,2.4,2.4,89,0.00,,,0.00,WUHU216HW,2013-07-22 13:31:00,
2013-07-22 06:36:00,55.5,52.3,29.87,SSW,203,0.8,2.4,89,0.00,,,0.00,WUHU216HW,2013-07-22 13:36:00,
2013-07-22 06:41:00,55.5,52.3,29.87,SW,225,0.0,2.4,89,0.00,,,0.00,WUHU216HW,2013-07-22 13:41:00,
2013-07-22 06:46:00,55.5,52.3,29.87,SW,225,0.0,3.3,89,0.00,,,0.00,WUHU216HW,2013-07-22 13:46:00,
2013-07-22 06:51:00,55.5,52.3,29.87,SW,225,4.0,4.0,89,0.00,,,0.00,WUHU216HW,2013-07-22 13:51:00,
2013-07-22 06:56:00,55.5,52.3,29.87,SW,225,6.0,6.0,89,0.00,,,0.00,WUHU216HW,2013-07-22 13:56:00,
2013-07-22 07:01:00,55.7,52.5,29.88,SSW,203,0.0,6.0,89,0.00,,,0.00,WUHU216HW,2013-07-22 14:01:00,
2013-07-22 07:06:00,55.7,52.5,29.88,SW,225,0.0,3.5,89,0.00,,,0.00,WUHU216HW,2013-07-22 14:06:00,
2013-07-22 07:11:00,55.7,52.5,29.88,SW,225,0.0,3.5,89,0.00,,,0.00,WUHU216HW,2013-07-22 14:11:00,
2013-07-22 07:16:00,55.7,52.5,29.88,SW,225,0.0,3.8,89,0.00,,,0.00,WUHU216HW,2013-07-22 14:16:00,
2013-07-22 07:21:00,55.9,52.7,29.88,SSW,203,0.0,3.8,89,0.00,,,0.00,WUHU216HW,2013-07-22 14:21:00,
2013-07-22 07:26:00,55.9,52.7,29.88,SW,225,4.6,4.6,89,0.00,,,0.00,WUHU216HW,2013-07-22 14:26:00,
2013-07-22 07:31:00,55.9,52.7,29.89,SW,225,0.6,4.6,89,0.00,,,0.00,WUHU216HW,2013-07-22 14:31:00,
2013-07-22 07:37:00,55.9,52.7,29.89,South,180,0.0,2.9,89,0.00,,,0.00,WUHU216HW,2013-07-22 14:37:00,
2013-07-22 07:42:00,55.9,52.7,29.88,South,180,1.3,4.0,89,0.00,,,0.00,WUHU216HW,2013-07-22 14:42:00,
2013-07-22 07:47:00,56.1,52.9,29.89,SSW,203,0.0,4.0,89,0.00,,,0.00,WUHU216HW,2013-07-22 14:47:00,
2013-07-22 07:52:00,56.1,52.9,29.90,WSW,248,0.0,0.0,89,0.00,,,0.00,WUHU216HW,2013-07-22 14:52:00,
2013-07-22 07:57:00,56.3,53.0,29.89,SSW,203,0.0,0.0,89,0.00,,,0.00,WUHU216HW,2013-07-22 14:57:00,
2013-07-22 08:02:00,56.3,53.0,29.89,SSW,203,0.0,0.0,89,0.00,,,0.00,WUHU216HW,2013-07-22 15:02:00,
2013-07-22 08:07:00,56.4,53.2,29.89,SSW,203,2.9,2.9,89,0.00,,,0.00,WUHU216HW,2013-07-22 15:07:00,
2013-07-22 08:12:00,56.4,53.2,29.88,South,180,0.0,2.9,89,0.00,,,0.00,WUHU216HW,2013-07-22 15:12:00,
2013-07-22 08:17:00,56.4,53.2,29.88,SSW,203,0.0,0.0,89,0.00,,,0.00,WUHU216HW,2013-07-22 15:17:00,
2013-07-22 08:22:00,56.6,53.4,29.89,West,270,0.0,0.0,89,0.00,,,0.00,WUHU216HW,2013-07-22 15:22:00,
2013-07-22 08:27:00,56.8,53.6,29.89,SSW,203,0.0,4.2,89,0.00,,,0.00,WUHU216HW,2013-07-22 15:27:00,
2013-07-22 08:32:00,56.8,53.6,29.89,SW,225,0.0,4.2,89,0.00,,,0.00,WUHU216HW,2013-07-22 15:32:00,
2013-07-22 08:37:00,56.8,53.3,29.89,WSW,248,0.0,3.1,88,0.00,,,0.00,WUHU216HW,2013-07-22 15:37:00,
2013-07-22 08:42:00,56.8,53.3,29.89,SW,225,1.5,2.6,88,0.00,,,0.00,WUHU216HW,2013-07-22 15:42:00,
2013-07-22 08:47:00,57.0,53.4,29.89,WSW,248,0.0,2.6,88,0.00,,,0.00,WUHU216HW,2013-07-22 15:47:00,
2013-07-22 08:52:00,57.0,53.8,29.89,WSW,248,0.0,2.6,89,0.00,,,0.00,WUHU216HW,2013-07-22 15:52:00,
2013-07-22 08:57:00,57.0,53.8,29.89,SW,225,0.0,4.6,89,0.00,,,0.00,WUHU216HW,2013-07-22 15:57:00,
2013-07-22 09:02:00,57.3,54.1,29.89,SSW,203,1.5,4.6,89,0.00,,,0.00,WUHU216HW,2013-07-22 16:02:00,
2013-07-22 09:07:00,57.3,53.8,29.89,West,270,0.0,1.5,88,0.00,,,0.00,WUHU216HW,2013-07-22 16:07:00,
2013-07-22 09:12:00,57.5,54.0,29.89,SW,225,1.7,4.2,88,0.00,,,0.00,WUHU216HW,2013-07-22 16:12:00,
2013-07-22 09:18:00,57.7,54.2,29.89,South,180,0.8,4.2,88,0.00,,,0.00,WUHU216HW,2013-07-22 16:18:00,
2013-07-22 09:23:00,57.9,54.3,29.89,SSW,203,0.0,6.7,88,0.00,,,0.00,WUHU216HW,2013-07-22 16:23:00,
2013-07-22 09:28:00,57.9,54.3,29.89,WSW,248,0.0,6.7,88,0.00,,,0.00,WUHU216HW,2013-07-22 16:28:00,
2013-07-22 09:33:00,57.9,54.0,29.89,SSW,203,0.0,5.1,87,0.00,,,0.00,WUHU216HW,2013-07-22 16:33:00,
2013-07-22 09:38:00,58.1,54.2,29.90,South,180,0.0,5.1,87,0.00,,,0.00,WUHU216HW,2013-07-22 16:38:00,
2013-07-22 09:43:00,58.2,54.4,29.89,South,180,2.6,4.4,87,0.00,,,0.00,WUHU216HW,2013-07-22 16:43:00,
2013-07-22 09:48:00,58.2,54.1,29.89,WSW,248,0.0,4.4,86,0.00,,,0.00,WUHU216HW,2013-07-22 16:48:00,
2013-07-22 09:53:00,58.2,54.1,29.89,WSW,248,0.0,2.9,86,0.00,,,0.00,WUHU216HW,2013-07-22 16:53:00,
2013-07-22 09:58:00,58.6,54.4,29.89,SSW,203,0.0,6.4,86,0.00,,,0.00,WUHU216HW,2013-07-22 16:58:00,
2013-07-22 10:03:00,58.4,54.2,29.90,SW,225,0.0,6.4,86,0.00,,,0.00,WUHU216HW,2013-07-22 17:03:00,
2013-07-22 10:08:00,58.6,54.4,29.89,SSW,203,3.3,4.0,86,0.00,,,0.00,WUHU216HW,2013-07-22 17:08:00,
2013-07-22 10:13:00,58.6,54.4,29.89,SW,225,1.3,3.3,86,0.00,,,0.00,WUHU216HW,2013-07-22 17:13:00,
2013-07-22 10:18:00,58.8,54.6,29.90,SSW,203,2.9,3.3,86,0.00,,,0.00,WUHU216HW,2013-07-22 17:18:00,
2013-07-22 10:23:00,58.8,54.3,29.90,SW,225,2.4,3.8,85,0.00,,,0.00,WUHU216HW,2013-07-22 17:23:00,
2013-07-22 10:28:00,58.8,54.3,29.90,SW,225,0.0,3.8,85,0.00,,,0.00,WUHU216HW,2013-07-22 17:28:00,
2013-07-22 10:33:00,58.8,54.3,29.90,SSW,203,0.0,2.4,85,0.00,,,0.00,WUHU216HW,2013-07-22 17:33:00,
2013-07-22 10:38:00,58.8,54.3,29.90,SSW,203,3.5,3.5,85,0.00,,,0.00,WUHU216HW,2013-07-22 17:38:00,
2013-07-22 10:43:00,58.8,54.3,29.90,South,180,0.0,3.5,85,0.00,,,0.00,WUHU216HW,2013-07-22 17:43:00,
2013-07-22 10:48:00,58.8,54.3,29.90,WNW,293,0.0,6.4,85,0.00,,,0.00,WUHU216HW,2013-07-22 17:48:00,
2013-07-22 10:53:00,59.1,54.6,29.90,SW,225,0.0,6.4,85,0.00,,,0.00,WUHU216HW,2013-07-22 17:53:00,
2013-07-22 10:58:00,59.1,54.3,29.90,SSE,158,0.0,4.2,84,0.00,,,0.00,WUHU216HW,2013-07-22 17:58:00,
2013-07-22 11:04:00,59.3,54.5,29.90,WSW,248,0.0,0.0,84,0.00,,,0.00,WUHU216HW,2013-07-22 18:04:00,
2013-07-22 11:09:00,59.5,54.7,29.90,SSW,203,0.0,1.3,84,0.00,,,0.00,WUHU216HW,2013-07-22 18:09:00,
2013-07-22 11:14:00,59.7,54.8,29.90,SSW,203,0.0,2.2,84,0.00,,,0.00,WUHU216HW,2013-07-22 18:14:00,
2013-07-22 11:19:00,59.7,54.8,29.90,SSW,203,3.8,3.8,84,0.00,,,0.00,WUHU216HW,2013-07-22 18:19:00,
2013-07-22 11:24:00,59.7,54.5,29.90,SSW,203,2.2,3.8,83,0.00,,,0.00,WUHU216HW,2013-07-22 18:24:00,
2013-07-22 11:29:00,59.9,54.7,29.90,SSE,158,0.0,2.2,83,0.00,,,0.00,WUHU216HW,2013-07-22 18:29:00,
2013-07-22 11:34:00,60.0,54.9,29.90,SSW,203,0.0,3.8,83,0.00,,,0.00,WUHU216HW,2013-07-22 18:34:00,
2013-07-22 11:39:00,60.4,55.2,29.90,SSW,203,0.0,3.8,83,0.00,,,0.00,WUHU216HW,2013-07-22 18:39:00,
2013-07-22 11:45:00,60.6,55.1,29.90,West,270,2.4,2.4,82,0.00,,,0.00,WUHU216HW,2013-07-22 18:45:00,
2013-07-22 11:50:00,60.6,55.1,29.90,SSW,203,1.1,5.3,82,0.00,,,0.00,WUHU216HW,2013-07-22 18:50:00,
2013-07-22 11:55:00,60.6,55.1,29.90,SSE,158,0.0,5.3,82,0.00,,,0.00,WUHU216HW,2013-07-22 18:55:00,
2013-07-22 12:00:00,60.9,55.1,29.90,SW,225,0.0,3.5,81,0.00,,,0.00,WUHU216HW,2013-07-22 19:00:00,
2013-07-22 12:05:00,60.9,55.1,29.90,SW,225,6.7,6.7,81,0.00,,,0.00,WUHU216HW,2013-07-22 19:05:00,
2013-07-22 12:10:00,60.9,55.1,29.90,SSE,158,0.0,6.7,81,0.00,,,0.00,WUHU216HW,2013-07-22 19:10:00,
2013-07-22 12:15:00,61.3,55.4,29.90,ESE,113,5.3,5.3,81,0.00,,,0.00,WUHU216HW,2013-07-22 19:15:00,
2013-07-22 12:20:00,61.5,55.6,29.90,SW,225,0.0,5.3,81,0.00,,,0.00,WUHU216HW,2013-07-22 19:20:00,
2013-07-22 12:26:00,62.0,55.8,29.90,West,270,0.0,6.2,80,0.00,,,0.00,WUHU216HW,2013-07-22 19:26:00,
2013-07-22 12:31:00,62.4,56.1,29.90,SSE,158,0.0,6.2,80,0.00,,,0.00,WUHU216HW,2013-07-22 19:31:00,
2013-07-22 12:36:00,62.4,55.7,29.90,SSE,158,2.0,4.4,79,0.00,,,0.00,WUHU216HW,2013-07-22 19:36:00,
2013-07-22 12:41:00,62.7,56.1,29.90,SSW,203,0.8,2.6,79,0.00,,,0.00,WUHU216HW,2013-07-22 19:41:00,
2013-07-22 12:46:00,62.9,55.9,29.89,South,180,5.3,5.3,78,0.00,,,0.00,WUHU216HW,2013-07-22 19:46:00,
2013-07-22 12:51:00,63.1,56.1,29.90,ESE,113,1.1,5.3,78,0.00,,,0.00,WUHU216HW,2013-07-22 19:51:00,
2013-07-22 12:56:00,63.5,56.4,29.90,SW,225,2.6,5.1,78,0.00,,,0.00,WUHU216HW,2013-07-22 19:56:00,
2013-07-22 13:01:00,63.5,56.1,29.90,SSE,158,0.0,7.8,77,0.00,,,0.00,WUHU216HW,2013-07-22 20:01:00,
2013-07-22 13:06:00,63.6,56.3,29.90,SW,225,8.2,8.2,77,0.00,,,0.00,WUHU216HW,2013-07-22 20:06:00,
2013-07-22 13:12:00,64.0,56.3,29.90,South,180,0.8,8.2,76,0.00,,,0.00,WUHU216HW,2013-07-22 20:12:00,
2013-07-22 13:17:00,64.2,56.4,29.90,SW,225,3.3,8.2,76,0.00,,,0.00,WUHU216HW,2013-07-22 20:17:00,
2013-07-22 13:18:00,64.2,56.4,29.90,SW,225,3.3,5.5,76,0.00,,,0.00,WUHU216HW,2013-07-22 20:18:00,
2013-07-22 13:19:00,64.2,56.4,29.90,SW,225,3.3,5.5,76,0.00,,,0.00,WUHU216HW,2013-07-22 20:19:00,
2013-07-22 13:24:00,64.5,56.4,29.90,South,180,0.0,3.3,75,0.00,,,0.00,WUHU216HW,2013-07-22 20:24:00,
2013-07-22 13:29:00,64.7,56.2,29.90,SSE,158,5.3,6.9,74,0.00,,,0.00,WUHU216HW,2013-07-22 20:29:00,
2013-07-22 13:34:00,64.5,56.1,29.90,ESE,113,0.0,8.0,74,0.00,,,0.00,WUHU216HW,2013-07-22 20:34:00,
2013-07-22 13:39:00,64.7,56.2,29.90,SW,225,0.0,8.0,74,0.00,,,0.00,WUHU216HW,2013-07-22 20:39:00,
2013-07-22 13:43:00,64.9,56.4,29.90,SSW,203,0.8,5.1,74,0.00,,,0.00,WUHU216HW,2013-07-22 20:43:00,
2013-07-22 13:49:00,65.1,56.6,29.90,SW,225,6.7,7.3,74,0.00,,,0.00,WUHU216HW,2013-07-22 20:49:00,
2013-07-22 13:54:00,65.4,56.5,29.90,SE,135,6.2,7.3,73,0.00,,,0.00,WUHU216HW,2013-07-22 20:54:00,
2013-07-22 13:59:00,65.4,56.2,29.90,SSE,158,5.1,6.2,72,0.00,,,0.00,WUHU216HW,2013-07-22 20:59:00,
2013-07-22 14:04:00,65.4,56.5,29.90,WSW,248,0.0,6.2,73,0.00,,,0.00,WUHU216HW,2013-07-22 21:04:00,
2013-07-22 14:09:00,65.3,56.4,29.90,SW,225,5.5,5.5,73,0.00,,,0.00,WUHU216HW,2013-07-22 21:09:00,
2013-07-22 14:14:00,65.1,55.8,29.90,South,180,0.8,6.2,72,0.00,,,0.00,WUHU216HW,2013-07-22 21:14:00,
2013-07-22 14:19:00,65.1,56.2,29.90,SE,135,4.2,6.4,73,0.00,,,0.00,WUHU216HW,2013-07-22 21:19:00,
2013-07-22 14:24:00,65.1,56.2,29.90,ESE,113,2.9,6.4,73,0.00,,,0.00,WUHU216HW,2013-07-22 21:24:00,
2013-07-22 14:29:00,65.3,56.4,29.90,SSW,203,7.6,7.6,73,0.00,,,0.00,WUHU216HW,2013-07-22 21:29:00,
2013-07-22 14:34:00,65.1,55.8,29.90,South,180,1.1,8.7,72,0.00,,,0.00,WUHU216HW,2013-07-22 21:34:00,
2013-07-22 14:39:00,64.9,56.0,29.90,South,180,5.3,8.7,73,0.00,,,0.00,WUHU216HW,2013-07-22 21:39:00,
2013-07-22 14:44:00,64.7,55.9,29.90,WNW,293,4.0,5.3,73,0.00,,,0.00,WUHU216HW,2013-07-22 21:44:00,
2013-07-22 14:49:00,64.5,55.7,29.90,SSW,203,4.4,8.5,73,0.00,,,0.00,WUHU216HW,2013-07-22 21:49:00,
2013-07-22 14:54:00,64.5,55.7,29.90,ESE,113,2.2,8.5,73,0.00,,,0.00,WUHU216HW,2013-07-22 21:54:00,
2013-07-22 15:00:00,64.2,55.4,29.90,SE,135,1.1,4.9,73,0.00,,,0.00,WUHU216HW,2013-07-22 22:00:00,
2013-07-22 15:05:00,63.6,54.8,29.90,South,180,1.3,5.8,73,0.00,,,0.00,WUHU216HW,2013-07-22 22:05:00,
2013-07-22 15:10:00,63.6,55.2,29.90,SSE,158,1.3,5.8,74,0.00,,,0.00,WUHU216HW,2013-07-22 22:10:00,
2013-07-22 15:15:00,63.8,55.4,29.90,SW,225,0.0,5.3,74,0.00,,,0.00,WUHU216HW,2013-07-22 22:15:00,
2013-07-22 15:20:00,63.6,55.2,29.89,SW,225,2.0,6.0,74,0.00,,,0.00,WUHU216HW,2013-07-22 22:20:00,
2013-07-22 15:25:00,63.6,55.2,29.89,SW,225,6.7,9.6,74,0.00,,,0.00,WUHU216HW,2013-07-22 22:25:00,
2013-07-22 15:30:00,63.5,55.0,29.89,SSW,203,6.0,9.6,74,0.00,,,0.00,WUHU216HW,2013-07-22 22:30:00,
2013-07-22 15:35:00,63.3,54.8,29.89,SW,225,0.0,6.7,74,0.00,,,0.00,WUHU216HW,2013-07-22 22:35:00,
2013-07-22 15:40:00,63.6,55.2,29.89,South,180,0.0,6.7,74,0.00,,,0.00,WUHU216HW,2013-07-22 22:40:00,